createdAt,value
2017-06-27T00:01:59.551Z,20.50
2017-06-27T00:04:25.942Z,20.50
2017-06-27T00:06:52.349Z,20.50
2017-06-27T00:09:19.675Z,20.40
2017-06-27T00:11:46.057Z,20.30
2017-06-27T00:14:12.451Z,20.40
2017-06-27T00:16:38.881Z,20.40
2017-06-27T00:19:05.377Z,20.30
2017-06-27T00:21:31.820Z,20.30
2017-06-27T00:23:58.234Z,20.30
2017-06-27T00:26:24.652Z,20.30
2017-06-27T00:28:51.191Z,20.30
2017-06-27T00:31:17.568Z,20.20
2017-06-27T00:33:43.963Z,20.20
2017-06-27T00:36:10.372Z,20.10
2017-06-27T00:38:36.836Z,20.10
2017-06-27T00:41:03.275Z,20.00
2017-06-27T00:43:29.668Z,20.10
2017-06-27T00:45:56.811Z,20.00
2017-06-27T00:48:24.056Z,20.00
2017-06-27T00:50:51.188Z,20.00
2017-06-27T00:53:17.629Z,20.00
2017-06-27T00:55:44.146Z,20.00
2017-06-27T00:58:10.573Z,19.90
2017-06-27T01:00:36.980Z,19.90
2017-06-27T01:03:03.424Z,19.90
2017-06-27T01:05:29.840Z,19.80
2017-06-27T01:07:56.424Z,19.80
2017-06-27T01:10:22.828Z,19.80
2017-06-27T01:12:49.215Z,19.80
2017-06-27T01:15:16.516Z,19.70
2017-06-27T01:17:42.951Z,19.70
2017-06-27T01:20:09.373Z,19.70
2017-06-27T01:22:35.897Z,19.70
2017-06-27T01:25:02.296Z,19.70
2017-06-27T01:27:29.524Z,19.70
2017-06-27T01:29:56.032Z,19.70
2017-06-27T01:32:22.462Z,19.70
2017-06-27T01:34:48.880Z,19.60
2017-06-27T01:37:15.379Z,19.60
2017-06-27T01:39:42.517Z,19.60
2017-06-27T01:42:08.932Z,19.60
2017-06-27T01:44:35.396Z,19.50
2017-06-27T01:47:02.611Z,19.50
2017-06-27T01:49:35.956Z,19.50
2017-06-27T01:52:02.356Z,19.50
2017-06-27T01:54:28.792Z,19.50
2017-06-27T01:56:55.272Z,19.50
2017-06-27T01:59:22.344Z,19.50
2017-06-27T02:01:48.745Z,19.40
2017-06-27T02:04:15.171Z,19.40
2017-06-27T02:06:41.557Z,19.40
2017-06-27T02:09:07.968Z,19.40
2017-06-27T02:11:34.475Z,19.40
2017-06-27T02:14:00.885Z,19.40
2017-06-27T02:16:28.024Z,19.30
2017-06-27T02:18:54.635Z,19.30
2017-06-27T02:21:21.049Z,19.30
2017-06-27T02:23:47.451Z,19.30
2017-06-27T02:26:13.997Z,19.20
2017-06-27T02:28:40.456Z,19.20
2017-06-27T02:31:06.840Z,19.20
2017-06-27T02:33:34.028Z,19.20
2017-06-27T02:36:00.489Z,19.20
2017-06-27T02:38:26.933Z,19.20
2017-06-27T02:40:53.417Z,19.10
2017-06-27T02:43:19.821Z,19.10
2017-06-27T02:45:46.963Z,18.90
2017-06-27T02:48:13.591Z,18.80
2017-06-27T02:50:39.988Z,18.90
2017-06-27T02:53:06.380Z,19.00
2017-06-27T02:55:32.812Z,19.00
2017-06-27T02:57:59.305Z,19.00
2017-06-27T03:00:25.712Z,19.00
2017-06-27T03:02:52.151Z,18.90
2017-06-27T03:05:18.556Z,18.90
2017-06-27T03:07:45.035Z,19.00
2017-06-27T03:10:11.507Z,19.00
2017-06-27T03:12:38.680Z,18.90
2017-06-27T03:15:05.077Z,18.90
2017-06-27T03:17:31.563Z,18.90
2017-06-27T03:19:58.048Z,18.80
2017-06-27T03:22:24.427Z,18.90
2017-06-27T03:24:50.808Z,18.90
2017-06-27T03:27:17.352Z,18.90
2017-06-27T03:29:44.487Z,18.90
2017-06-27T03:32:10.860Z,18.90
2017-06-27T03:34:37.377Z,19.00
2017-06-27T03:37:04.500Z,19.00
2017-06-27T03:39:30.897Z,18.90
2017-06-27T03:41:57.452Z,19.00
2017-06-27T03:44:23.865Z,19.00
2017-06-27T03:46:50.268Z,19.00
2017-06-27T03:49:16.780Z,19.10
2017-06-27T03:51:43.171Z,19.10
2017-06-27T03:54:09.564Z,19.10
2017-06-27T03:56:36.007Z,19.20
2017-06-27T03:59:02.476Z,19.20
2017-06-27T04:01:28.876Z,19.20
2017-06-27T04:03:55.328Z,19.30
2017-06-27T04:06:21.723Z,19.30
2017-06-27T04:08:48.184Z,19.40
2017-06-27T04:11:14.713Z,19.50
2017-06-27T04:13:41.105Z,19.50
2017-06-27T04:16:07.502Z,19.60
2017-06-27T04:18:33.986Z,19.60
2017-06-27T04:21:01.168Z,19.80
2017-06-27T04:23:27.567Z,19.80
2017-06-27T04:25:54.755Z,19.90
2017-06-27T04:28:21.208Z,19.90
2017-06-27T04:30:47.621Z,19.90
2017-06-27T04:33:14.060Z,20.00
2017-06-27T04:35:40.453Z,20.00
2017-06-27T04:38:07.684Z,20.10
2017-06-27T04:40:34.120Z,20.10
2017-06-27T04:43:00.534Z,20.20
2017-06-27T04:45:26.947Z,20.30
2017-06-27T04:47:53.436Z,20.30
2017-06-27T04:50:20.640Z,20.40
2017-06-27T04:52:47.136Z,20.40
2017-06-27T04:55:13.580Z,20.40
2017-06-27T04:57:40.142Z,20.50
2017-06-27T05:00:06.676Z,20.50
2017-06-27T05:02:33.076Z,20.60
2017-06-27T05:04:59.464Z,20.60
2017-06-27T05:07:25.919Z,20.70
2017-06-27T05:09:52.296Z,20.70
2017-06-27T05:12:18.697Z,20.80
2017-06-27T05:14:45.972Z,20.80
2017-06-27T05:17:12.443Z,20.80
2017-06-27T05:19:38.832Z,20.80
2017-06-27T05:22:05.328Z,20.90
2017-06-27T05:24:31.930Z,20.90
2017-06-27T05:26:58.359Z,20.90
2017-06-27T05:29:24.752Z,21.00
2017-06-27T05:31:51.932Z,21.00
2017-06-27T05:34:18.327Z,21.00
2017-06-27T05:36:44.721Z,21.00
2017-06-27T05:39:11.344Z,21.10
2017-06-27T05:41:37.781Z,21.10
2017-06-27T05:44:05.513Z,21.10
2017-06-27T05:46:32.060Z,21.10
2017-06-27T05:48:58.523Z,21.10
2017-06-27T05:51:24.935Z,21.10
2017-06-27T05:53:51.387Z,21.10
2017-06-27T05:56:17.784Z,21.20
2017-06-27T05:58:44.265Z,21.20
2017-06-27T06:01:10.743Z,21.20
2017-06-27T06:03:37.172Z,21.20
2017-06-27T06:06:03.573Z,21.30
2017-06-27T06:08:30.016Z,21.30
2017-06-27T06:10:57.176Z,21.30
2017-06-27T06:13:24.353Z,21.30
2017-06-27T06:15:50.799Z,21.30
2017-06-27T06:18:17.249Z,21.40
2017-06-27T06:20:43.653Z,21.50
2017-06-27T06:23:10.096Z,21.50
2017-06-27T06:25:36.487Z,21.50
2017-06-27T06:28:03.688Z,21.50
2017-06-27T06:30:30.125Z,21.50
2017-06-27T06:32:56.505Z,21.50
2017-06-27T06:35:23.792Z,21.60
2017-06-27T06:37:50.285Z,21.60
2017-06-27T06:40:16.675Z,21.70
2017-06-27T06:42:43.139Z,21.80
2017-06-27T06:45:09.540Z,21.90
2017-06-27T06:47:36.064Z,22.00
2017-06-27T06:50:02.487Z,21.90
2017-06-27T06:52:28.927Z,21.90
2017-06-27T06:54:55.326Z,21.90
2017-06-27T06:57:22.528Z,22.20
2017-06-27T06:59:48.960Z,22.10
2017-06-27T07:02:15.369Z,22.20
2017-06-27T07:04:41.772Z,22.20
2017-06-27T07:07:09.251Z,22.30
2017-06-27T07:09:35.639Z,22.30
2017-06-27T07:12:02.056Z,22.40
2017-06-27T07:14:28.508Z,22.40
2017-06-27T07:16:54.917Z,22.60
2017-06-27T07:19:21.343Z,22.50
2017-06-27T07:21:47.797Z,22.60
2017-06-27T07:24:14.214Z,22.70
2017-06-27T07:26:40.633Z,22.70
2017-06-27T07:29:07.123Z,22.70
2017-06-27T07:31:34.259Z,22.70
2017-06-27T07:34:00.700Z,22.70
2017-06-27T07:36:27.099Z,22.70
2017-06-27T07:38:53.536Z,22.60
2017-06-27T07:41:19.981Z,22.50
2017-06-27T07:43:46.380Z,22.50
2017-06-27T07:46:12.776Z,22.50
2017-06-27T07:48:40.112Z,22.70
2017-06-27T07:51:06.516Z,22.70
2017-06-27T07:53:32.971Z,22.80
2017-06-27T07:55:59.400Z,22.90
2017-06-27T07:58:25.804Z,23.10
2017-06-27T08:00:52.185Z,23.20
2017-06-27T08:03:19.364Z,23.20
2017-06-27T08:05:45.759Z,23.10
2017-06-27T08:08:12.368Z,23.30
2017-06-27T08:10:38.828Z,23.30
2017-06-27T08:13:05.225Z,23.20
2017-06-27T08:15:31.681Z,23.20
2017-06-27T08:17:58.271Z,23.20
2017-06-27T08:20:24.856Z,23.30
2017-06-27T08:22:51.296Z,23.20
2017-06-27T08:25:17.745Z,23.30
2017-06-27T08:27:44.965Z,23.40
2017-06-27T08:30:11.417Z,23.40
2017-06-27T08:32:37.836Z,23.40
2017-06-27T08:35:05.036Z,23.40
2017-06-27T08:37:31.551Z,23.40
2017-06-27T08:39:57.953Z,23.50
2017-06-27T08:42:24.461Z,23.50
2017-06-27T08:44:51.777Z,23.70
2017-06-27T08:47:18.980Z,23.80
2017-06-27T08:49:45.383Z,23.80
2017-06-27T08:52:11.900Z,23.90
2017-06-27T08:54:38.347Z,24.00
2017-06-27T08:57:04.885Z,24.00
2017-06-27T08:59:31.348Z,24.10
2017-06-27T09:01:57.748Z,24.20
2017-06-27T09:04:24.452Z,24.20
2017-06-27T09:06:50.904Z,24.20
2017-06-27T09:09:18.111Z,24.50
2017-06-27T09:11:44.557Z,24.50
2017-06-27T09:14:10.957Z,24.60
2017-06-27T09:16:37.557Z,24.60
2017-06-27T09:19:04.084Z,24.70
2017-06-27T09:21:31.232Z,25.00
2017-06-27T09:23:58.388Z,25.00
2017-06-27T09:26:24.833Z,25.00
2017-06-27T09:28:51.325Z,25.10
2017-06-27T09:31:17.764Z,25.20
2017-06-27T09:33:44.171Z,25.30
2017-06-27T09:36:10.572Z,25.30
2017-06-27T09:38:37.079Z,25.40
2017-06-27T09:41:04.277Z,25.40
2017-06-27T09:43:30.697Z,25.40
2017-06-27T09:45:57.308Z,25.40
2017-06-27T09:48:23.992Z,25.30
2017-06-27T09:50:50.420Z,25.40
2017-06-27T09:53:16.855Z,25.40
2017-06-27T09:55:43.642Z,25.40
2017-06-27T09:58:10.142Z,25.40
2017-06-27T10:00:36.669Z,25.40
2017-06-27T10:03:03.068Z,25.50
2017-06-27T10:05:29.488Z,25.50
2017-06-27T10:07:56.741Z,25.70
2017-06-27T10:10:23.500Z,25.70
2017-06-27T10:12:50.064Z,25.80
2017-06-27T10:15:16.664Z,25.90
2017-06-27T10:17:43.141Z,26.00
2017-06-27T10:20:09.538Z,26.10
2017-06-27T10:22:35.980Z,26.20
2017-06-27T10:25:02.384Z,26.10
2017-06-27T10:27:29.575Z,26.00
2017-06-27T10:29:56.012Z,26.00
2017-06-27T10:32:22.440Z,26.00
2017-06-27T10:34:48.880Z,26.00
2017-06-27T10:37:15.328Z,26.00
2017-06-27T10:39:41.720Z,26.10
2017-06-27T10:42:08.176Z,26.10
2017-06-27T10:44:34.569Z,26.20
2017-06-27T10:47:00.971Z,26.40
2017-06-27T10:49:27.519Z,26.40
2017-06-27T10:51:53.921Z,26.50
2017-06-27T10:54:20.456Z,26.60
2017-06-27T10:56:47.280Z,26.80
2017-06-27T10:59:13.744Z,26.90
2017-06-27T11:01:40.149Z,27.00
2017-06-27T11:04:06.565Z,27.20
2017-06-27T11:06:32.992Z,27.30
2017-06-27T11:08:59.479Z,27.40
2017-06-27T11:11:25.922Z,27.40
2017-06-27T11:13:52.304Z,27.40
2017-06-27T11:16:18.796Z,27.40
2017-06-27T11:18:45.341Z,27.30
2017-06-27T11:21:12.518Z,27.50
2017-06-27T11:23:38.921Z,27.50
2017-06-27T11:26:05.351Z,27.70
2017-06-27T11:28:31.836Z,27.80
2017-06-27T11:30:58.224Z,28.00
2017-06-27T11:33:24.639Z,28.10
2017-06-27T11:35:51.036Z,28.00
2017-06-27T11:38:17.471Z,28.00
2017-06-27T11:40:43.901Z,28.10
2017-06-27T11:43:10.312Z,28.20
2017-06-27T11:45:43.806Z,28.30
2017-06-27T11:48:11.087Z,28.40
2017-06-27T11:50:37.472Z,28.40
2017-06-27T11:53:03.865Z,28.60
2017-06-27T11:55:30.276Z,28.80
2017-06-27T11:57:56.666Z,28.90
2017-06-27T12:00:35.312Z,29.00
2017-06-27T12:03:01.792Z,29.10
2017-06-27T12:05:53.312Z,29.30
2017-06-27T12:08:19.748Z,29.30
2017-06-27T12:10:46.153Z,29.30
2017-06-27T12:13:12.584Z,29.40
2017-06-27T12:15:39.102Z,29.40
2017-06-27T12:18:05.548Z,29.50
2017-06-27T12:20:31.939Z,29.70
2017-06-27T12:22:58.392Z,29.90
2017-06-27T12:25:24.780Z,30.10
2017-06-27T12:27:51.161Z,30.30
2017-06-27T12:30:17.597Z,30.50
2017-06-27T12:32:44.009Z,30.70
2017-06-27T12:35:11.139Z,30.90
2017-06-27T12:37:37.667Z,30.90
2017-06-27T12:40:04.056Z,31.00
2017-06-27T12:42:30.449Z,31.10
2017-06-27T12:44:56.969Z,31.30
2017-06-27T12:47:23.368Z,31.30
2017-06-27T12:49:49.769Z,31.40
2017-06-27T12:52:16.212Z,31.40
2017-06-27T12:54:42.596Z,31.40
2017-06-27T12:57:09.008Z,31.10
2017-06-27T12:59:35.452Z,30.70
2017-06-27T13:02:01.852Z,30.50
2017-06-27T13:04:28.240Z,30.40
2017-06-27T13:06:55.424Z,30.20
2017-06-27T13:09:21.828Z,30.20
2017-06-27T13:11:48.969Z,30.20
2017-06-27T13:14:15.400Z,30.20
2017-06-27T13:16:41.796Z,30.20
2017-06-27T13:19:08.245Z,30.20
2017-06-27T13:21:34.752Z,30.00
2017-06-27T13:24:01.140Z,29.90
2017-06-27T13:26:28.268Z,30.00
2017-06-27T13:28:54.717Z,29.90
2017-06-27T13:31:21.141Z,30.10
2017-06-27T13:33:47.528Z,30.30
2017-06-27T13:36:13.922Z,30.70
2017-06-27T13:38:41.104Z,31.40
2017-06-27T13:41:07.515Z,31.30
2017-06-27T13:43:34.650Z,31.40
2017-06-27T13:46:01.833Z,31.50
2017-06-27T13:48:28.224Z,31.50
2017-06-27T13:50:54.612Z,31.60
2017-06-27T13:53:21.048Z,31.50
2017-06-27T13:55:47.448Z,31.70
2017-06-27T13:58:14.589Z,31.80
2017-06-27T14:00:41.773Z,32.00
2017-06-27T14:03:08.160Z,32.00
2017-06-27T14:05:34.549Z,31.90
2017-06-27T14:08:01.064Z,31.80
2017-06-27T14:10:27.463Z,31.80
2017-06-27T14:12:54.607Z,31.80
2017-06-27T14:15:21.048Z,31.70
2017-06-27T14:17:48.175Z,31.50
2017-06-27T14:20:14.621Z,31.50
2017-06-27T14:22:41.061Z,31.40
2017-06-27T14:25:07.458Z,31.10
2017-06-27T14:27:48.857Z,30.90
2017-06-27T14:30:15.249Z,30.80
2017-06-27T14:32:41.636Z,30.60
2017-06-27T14:35:08.077Z,30.50
2017-06-27T14:37:35.227Z,30.40
2017-06-27T14:40:02.377Z,30.50
2017-06-27T14:42:29.557Z,30.50
2017-06-27T14:44:55.956Z,30.50
2017-06-27T14:47:22.359Z,30.50
2017-06-27T14:49:48.800Z,30.50
2017-06-27T14:52:15.236Z,30.40
2017-06-27T14:54:41.618Z,30.30
2017-06-27T14:57:08.048Z,30.20
2017-06-27T14:59:34.441Z,30.30
2017-06-27T15:02:00.825Z,30.50
2017-06-27T15:04:27.259Z,30.50
2017-06-27T15:06:53.635Z,30.40
2017-06-27T15:09:20.048Z,30.20
2017-06-27T15:11:46.573Z,30.10
2017-06-27T15:14:13.044Z,30.00
2017-06-27T15:16:39.409Z,30.00
2017-06-27T15:19:05.872Z,29.90
2017-06-27T15:21:32.345Z,30.00
2017-06-27T15:23:58.723Z,30.20
2017-06-27T15:26:25.160Z,30.40
2017-06-27T15:28:51.557Z,30.50
2017-06-27T15:31:18.692Z,30.60
2017-06-27T15:33:45.220Z,30.50
2017-06-27T15:36:11.622Z,30.70
2017-06-27T15:38:38.048Z,30.80
2017-06-27T15:41:04.500Z,30.80
2017-06-27T15:43:37.896Z,30.90
2017-06-27T15:46:04.303Z,30.90
2017-06-27T15:48:30.840Z,31.00
2017-06-27T15:50:57.236Z,30.90
2017-06-27T15:53:24.366Z,30.50
2017-06-27T15:55:50.899Z,30.50
2017-06-27T15:58:17.296Z,30.40
2017-06-27T16:00:43.676Z,30.10
2017-06-27T16:03:10.868Z,30.10
2017-06-27T16:05:37.252Z,30.00
2017-06-27T16:08:03.660Z,30.00
2017-06-27T16:10:30.148Z,29.70
2017-06-27T16:12:56.544Z,29.70
2017-06-27T16:15:22.928Z,29.60
2017-06-27T16:17:49.383Z,29.60
2017-06-27T16:20:15.777Z,29.40
2017-06-27T16:22:42.228Z,29.30
2017-06-27T16:25:08.637Z,29.10
2017-06-27T16:27:35.036Z,29.00
2017-06-27T16:30:01.572Z,28.90
2017-06-27T16:32:27.972Z,28.80
2017-06-27T16:34:54.358Z,28.80
2017-06-27T16:37:20.793Z,28.70
2017-06-27T16:39:47.921Z,28.60
2017-06-27T16:42:14.453Z,28.60
2017-06-27T16:44:40.832Z,28.60
2017-06-27T16:47:07.228Z,28.50
2017-06-27T16:49:34.409Z,28.40
2017-06-27T16:52:00.824Z,28.40
2017-06-27T16:54:27.944Z,28.30
2017-06-27T16:56:54.431Z,28.30
2017-06-27T16:59:20.840Z,28.20
2017-06-27T17:01:47.240Z,28.10
2017-06-27T17:04:13.669Z,28.00
2017-06-27T17:06:40.048Z,27.90
2017-06-27T17:09:06.444Z,27.90
2017-06-27T17:11:32.888Z,27.80
2017-06-27T17:13:59.268Z,27.80
2017-06-27T17:16:25.661Z,27.80
2017-06-27T17:18:52.165Z,27.70
2017-06-27T17:21:18.581Z,27.80
2017-06-27T17:23:44.974Z,27.60
2017-06-27T17:26:11.421Z,27.40
2017-06-27T17:28:37.847Z,27.30
2017-06-27T17:31:04.253Z,27.30
2017-06-27T17:33:31.459Z,27.10
2017-06-27T17:35:57.856Z,27.10
2017-06-27T17:38:24.304Z,27.10
2017-06-27T17:40:50.747Z,27.00
2017-06-27T17:43:17.149Z,27.00
2017-06-27T17:45:43.544Z,27.00
2017-06-27T17:48:10.764Z,27.00
2017-06-27T17:50:37.155Z,27.00
2017-06-27T17:53:03.569Z,27.00
2017-06-27T17:55:30.005Z,27.00
2017-06-27T17:57:56.425Z,27.00
2017-06-27T18:00:23.592Z,26.90
2017-06-27T18:02:50.045Z,26.90
2017-06-27T18:05:17.187Z,26.90
2017-06-27T18:07:44.328Z,26.90
2017-06-27T18:10:10.783Z,26.80
2017-06-27T18:12:37.199Z,26.70
2017-06-27T18:15:04.341Z,26.70
2017-06-27T18:17:30.809Z,26.70
2017-06-27T18:19:57.232Z,26.60
2017-06-27T18:22:23.628Z,26.60
2017-06-27T18:24:50.148Z,26.50
2017-06-27T18:27:16.552Z,26.50
2017-06-27T18:29:42.961Z,26.50
2017-06-27T18:32:09.454Z,26.40
2017-06-27T18:34:35.845Z,26.30
2017-06-27T18:37:02.240Z,26.30
2017-06-27T18:39:29.506Z,26.20
2017-06-27T18:41:55.884Z,26.20
2017-06-27T18:44:22.293Z,26.10
2017-06-27T18:46:48.732Z,26.00
2017-06-27T18:49:15.177Z,26.00
2017-06-27T18:51:42.187Z,25.80
2017-06-27T18:54:08.581Z,25.80
2017-06-27T18:56:35.041Z,25.60
2017-06-27T18:59:02.185Z,25.50
2017-06-27T19:01:28.565Z,25.50
2017-06-27T19:03:55.356Z,25.50
2017-06-27T19:06:21.831Z,25.40
2017-06-27T19:08:48.236Z,25.30
2017-06-27T19:11:14.741Z,25.20
2017-06-27T19:13:41.127Z,25.20
2017-06-27T19:16:07.504Z,25.00
2017-06-27T19:18:34.520Z,25.00
2017-06-27T19:21:00.947Z,24.80
2017-06-27T19:23:27.792Z,24.70
2017-06-27T19:25:54.288Z,24.70
2017-06-27T19:28:22.431Z,24.60
2017-06-27T19:30:48.825Z,24.50
2017-06-27T19:33:15.262Z,24.50
2017-06-27T19:35:41.745Z,24.40
2017-06-27T19:38:08.209Z,24.40
2017-06-27T19:40:34.599Z,24.30
2017-06-27T19:43:01.913Z,24.20
2017-06-27T19:45:29.421Z,24.10
2017-06-27T19:47:55.851Z,24.00
2017-06-27T19:50:22.913Z,23.90
2017-06-27T19:52:50.084Z,23.80
2017-06-27T19:55:16.477Z,23.80
2017-06-27T19:57:42.881Z,23.80
2017-06-27T20:00:09.349Z,23.80
2017-06-27T20:02:35.760Z,23.70
2017-06-27T20:05:02.345Z,23.70
2017-06-27T20:07:29.200Z,23.60
2017-06-27T20:09:55.669Z,23.60
2017-06-27T20:12:22.056Z,23.50
2017-06-27T20:14:48.502Z,23.50
2017-06-27T20:17:14.952Z,23.40
2017-06-27T20:19:41.353Z,23.40
2017-06-27T20:22:08.516Z,23.20
2017-06-27T20:24:34.960Z,23.30
2017-06-27T20:27:01.352Z,23.20
2017-06-27T20:29:27.761Z,23.10
2017-06-27T20:31:54.224Z,23.10
2017-06-27T20:34:21.348Z,23.00
2017-06-27T20:36:47.740Z,23.00
2017-06-27T20:39:14.192Z,22.90
2017-06-27T20:41:40.612Z,22.90
2017-06-27T20:44:07.012Z,22.80
2017-06-27T20:46:33.469Z,22.90
2017-06-27T20:48:59.877Z,22.90
2017-06-27T20:51:27.369Z,22.80
2017-06-27T20:53:53.972Z,22.80
2017-06-27T20:56:21.148Z,22.70
2017-06-27T20:58:47.618Z,22.70
2017-06-27T21:01:14.128Z,22.70
2017-06-27T21:03:40.762Z,22.70
2017-06-27T21:06:08.055Z,22.60
2017-06-27T21:08:34.706Z,22.60
2017-06-27T21:11:01.839Z,22.50
2017-06-27T21:13:28.321Z,22.40
2017-06-27T21:15:54.728Z,22.40
2017-06-27T21:18:21.233Z,22.50
2017-06-27T21:20:47.669Z,22.30
2017-06-27T21:23:14.058Z,22.30
2017-06-27T21:25:40.459Z,22.20
2017-06-27T21:28:07.002Z,22.10
2017-06-27T21:30:34.128Z,22.10
2017-06-27T21:33:00.533Z,22.10
2017-06-27T21:35:27.006Z,22.10
2017-06-27T21:37:53.500Z,22.10
2017-06-27T21:40:19.896Z,22.00
2017-06-27T21:42:46.349Z,22.00
2017-06-27T21:45:12.749Z,21.90
2017-06-27T21:47:39.948Z,21.80
2017-06-27T21:50:06.398Z,21.80
2017-06-27T21:52:32.792Z,21.80
2017-06-27T21:54:59.192Z,21.70
2017-06-27T21:57:26.516Z,21.70
2017-06-27T21:59:52.933Z,21.70
2017-06-27T22:02:19.324Z,21.70
2017-06-27T22:04:45.862Z,21.60
2017-06-27T22:07:12.265Z,21.60
2017-06-27T22:09:38.669Z,21.60
2017-06-27T22:12:05.102Z,21.50
2017-06-27T22:14:31.524Z,21.50
2017-06-27T22:16:58.036Z,21.40
2017-06-27T22:19:24.500Z,21.40
2017-06-27T22:21:50.893Z,21.40
2017-06-27T22:24:17.408Z,21.40
2017-06-27T22:26:44.545Z,21.30
2017-06-27T22:29:11.955Z,21.30
2017-06-27T22:31:38.400Z,21.30
2017-06-27T22:34:04.800Z,21.20
2017-06-27T22:36:31.205Z,21.20
2017-06-27T22:38:57.761Z,21.20
2017-06-27T22:41:24.156Z,21.10
2017-06-27T22:43:50.540Z,21.20
2017-06-27T22:46:16.997Z,21.10
2017-06-27T22:48:43.420Z,21.10
2017-06-27T22:51:09.845Z,21.00
2017-06-27T22:53:36.283Z,21.00
2017-06-27T22:56:02.692Z,21.00
2017-06-27T22:58:30.192Z,20.90
2017-06-27T23:00:56.618Z,20.90
2017-06-27T23:03:23.009Z,20.80
2017-06-27T23:05:50.148Z,20.70
2017-06-27T23:08:17.424Z,20.70
2017-06-27T23:10:43.836Z,20.70
2017-06-27T23:13:11.004Z,20.70
2017-06-27T23:15:37.434Z,20.70
2017-06-27T23:18:04.605Z,20.70
2017-06-27T23:20:30.985Z,20.60
2017-06-27T23:22:57.426Z,20.60
2017-06-27T23:25:23.840Z,20.60
2017-06-27T23:27:50.248Z,20.60
2017-06-27T23:30:16.692Z,20.60
2017-06-27T23:32:43.088Z,20.60
2017-06-27T23:35:09.460Z,20.50
2017-06-27T23:37:36.049Z,20.50
2017-06-27T23:40:02.461Z,20.50
2017-06-27T23:42:29.620Z,20.50
2017-06-27T23:44:56.858Z,20.40
2017-06-27T23:47:23.360Z,20.40
2017-06-27T23:49:49.764Z,20.40
2017-06-27T23:52:16.205Z,20.30
2017-06-27T23:54:42.617Z,20.30
2017-06-27T23:57:09.003Z,20.30
2017-06-27T23:59:35.457Z,20.30
